Time;durP1;ratioP1;P1;durP2;ratioP2;P2;SDS_P1;SDS_P2;PMS_P1;PMS_P2;Temp;Humidity;BMP_temperature;BMP_pressure;BME280_temperature;BME280_humidity;BME280_pressure;Samples;Min_cycle;Max_cycle;Signal;HPM_P1;HPM_P2
2024/01/07 00:00:11;;;;;;;71.80;36.80;;;;;;;-144.30;100.00;86573.50;5091485;28;20201;-56
2024/01/07 00:02:37;;;;;;;66.30;35.43;;;;;;;-144.30;100.00;86553.59;5091835;28;20234;-56
2024/01/07 00:05:05;;;;;;;73.10;39.93;;;;;;;-144.30;100.00;86557.59;5091952;28;20195;-55
2024/01/07 00:07:33;;;;;;;80.07;40.47;;;;;;;-144.30;100.00;86635.13;5091663;28;20217;-55
2024/01/07 00:10:00;;;;;;;70.87;38.43;;;;;;;-144.30;100.00;86519.81;5091592;28;20195;-56
2024/01/07 00:12:27;;;;;;;67.03;35.57;;;;;;;-144.30;100.00;86573.50;5091279;28;20230;-56
2024/01/07 00:14:54;;;;;;;67.60;35.77;;;;;;;-144.30;100.00;86551.63;5091350;28;20191;-56
2024/01/07 00:17:21;;;;;;;72.77;37.13;;;;;;;-144.30;100.00;86569.50;5091425;28;20192;-55
2024/01/07 00:19:48;;;;;;;68.00;36.53;;;;;;;-144.30;100.00;86533.72;5091009;28;20821;-58
2024/01/07 00:22:15;;;;;;;68.03;36.23;;;;;;;-144.30;100.00;86577.47;5091437;28;20586;-55
2024/01/07 00:24:43;;;;;;;64.30;36.17;;;;;;;-144.30;100.00;86529.75;5090922;28;20238;-55
2024/01/07 00:27:10;;;;;;;61.17;34.10;;;;;;;-144.30;100.00;86525.75;5091011;28;20195;-55
2024/01/07 00:29:37;;;;;;;60.13;34.40;;;;;;;-144.30;100.00;86541.69;5091194;28;20220;-55
2024/01/07 00:32:04;;;;;;;65.77;35.03;;;;;;;-144.30;100.00;86543.66;5090949;28;20195;-55
2024/01/07 00:34:31;;;;;;;59.97;35.17;;;;;;;-144.30;100.00;86400.50;5091016;28;20247;-55
2024/01/07 00:37:00;;;;;;;62.67;35.20;;;;;;;-144.30;100.00;86501.91;5090782;28;20233;-56
2024/01/07 00:39:27;;;;;;;58.60;32.90;;;;;;;-144.30;100.00;86557.59;5090874;28;20214;-55
2024/01/07 00:41:55;;;;;;;63.80;32.83;;;;;;;-144.30;100.00;86509.84;5091210;28;20722;-57
2024/01/07 00:44:22;;;;;;;56.77;31.77;;;;;;;-144.30;100.00;86539.69;5090759;28;20223;-56
2024/01/07 00:46:48;;;;;;;58.47;32.67;;;;;;;-144.30;100.00;86537.69;5090995;28;20209;-56
2024/01/07 00:49:16;;;;;;;59.20;31.90;;;;;;;-144.30;100.00;86565.53;5090408;28;20206;-57
2024/01/07 00:51:43;;;;;;;55.83;30.20;;;;;;;-144.30;100.00;86517.81;5090430;28;20195;-56
2024/01/07 00:54:10;;;;;;;54.03;30.63;;;;;;;-144.30;100.00;86535.72;5090684;28;20575;-56
2024/01/07 00:56:37;;;;;;;50.30;29.77;;;;;;;-144.30;100.00;86543.66;5090581;28;20196;-56
2024/01/07 00:59:05;;;;;;;57.40;31.63;;;;;;;-144.30;100.00;86501.91;5090650;28;20675;-56
2024/01/07 01:01:32;;;;;;;52.77;30.33;;;;;;;-144.30;100.00;86537.69;5090390;28;20245;-57
2024/01/07 01:03:59;;;;;;;53.20;30.27;;;;;;;-144.30;100.00;86509.84;5090616;28;20598;-56
2024/01/07 01:06:26;;;;;;;54.10;30.37;;;;;;;-144.30;100.00;86491.97;5090325;28;20238;-57
2024/01/07 01:08:53;;;;;;;49.60;29.33;;;;;;;-144.30;100.00;86487.97;5090653;28;20580;-57
2024/01/07 01:11:20;;;;;;;59.60;31.47;;;;;;;-144.30;100.00;86513.84;5090757;28;20575;-56
2024/01/07 01:13:47;;;;;;;56.23;30.77;;;;;;;-144.30;100.00;86489.97;5090584;28;20191;-56
2024/01/07 01:16:15;;;;;;;52.40;30.20;;;;;;;-144.30;100.00;86517.81;5090389;28;20195;-56
2024/01/07 01:18:42;;;;;;;53.83;31.57;;;;;;;-144.30;100.00;86515.81;5090112;28;20210;-56
2024/01/07 01:21:09;;;;;;;50.50;30.53;;;;;;;-144.30;100.00;86525.75;5090171;28;20691;-57
2024/01/07 01:23:36;;;;;;;58.77;31.73;;;;;;;-144.30;100.00;86482.03;5090095;28;20720;-56
2024/01/07 01:26:03;;;;;;;51.87;30.77;;;;;;;-144.30;100.00;86529.75;5090367;28;20721;-56
2024/01/07 01:28:29;;;;;;;62.33;32.47;;;;;;;-144.30;100.00;86478.03;5090267;28;20579;-56
2024/01/07 01:30:57;;;;;;;53.83;31.47;;;;;;;-144.30;100.00;86521.78;5090063;28;20574;-56
2024/01/07 01:33:25;;;;;;;55.67;32.70;;;;;;;-144.30;100.00;86543.66;5090172;28;20610;-57
2024/01/07 01:35:52;;;;;;;57.33;32.17;;;;;;;-144.30;100.00;86539.69;5090183;28;20710;-56
2024/01/07 01:38:19;;;;;;;59.10;32.83;;;;;;;-144.30;100.00;86511.84;5090125;28;20191;-56
2024/01/07 01:40:52;;;;;;;65.23;33.87;;;;;;;-144.30;100.00;86533.72;5089960;28;20242;-55
2024/01/07 01:43:24;;;;;;;59.77;32.20;;;;;;;-144.30;100.00;86470.09;5090150;28;20195;-56
2024/01/07 01:45:51;;;;;;;55.93;30.50;;;;;;;-144.30;100.00;86525.75;5090102;28;20191;-57
2024/01/07 01:48:18;;;;;;;61.50;33.83;;;;;;;-144.30;100.00;86523.78;5089837;28;20288;-56
2024/01/07 01:50:47;;;;;;;53.53;31.73;;;;;;;-144.30;100.00;86493.94;5089597;28;20199;-55
2024/01/07 01:53:14;;;;;;;59.63;33.33;;;;;;;-144.30;100.00;86493.94;5089830;28;20300;-57
2024/01/07 01:55:42;;;;;;;60.40;32.67;;;;;;;-144.30;100.00;86515.81;5089711;28;20191;-56
2024/01/07 01:58:10;;;;;;;60.20;30.77;;;;;;;-144.30;100.00;86507.88;5089788;28;20209;-57
2024/01/07 02:00:37;;;;;;;57.80;30.73;;;;;;;-144.30;100.00;86551.63;5090945;28;20329;-57
2024/01/07 02:03:04;;;;;;;46.70;25.77;;;;;;;-144.30;100.00;86486.00;5093849;28;20199;-57
2024/01/07 02:05:32;;;;;;;50.13;28.93;;;;;;;-144.30;100.00;86489.97;5094017;28;20610;-56
2024/01/07 02:08:00;;;;;;;55.47;29.50;;;;;;;-144.30;100.00;86501.91;5093706;28;20202;-57
2024/01/07 02:10:34;;;;;;;51.50;30.10;;;;;;;-144.30;100.00;86472.06;5094016;28;20630;-55
2024/01/07 02:13:00;;;;;;;56.70;30.10;;;;;;;-144.30;100.00;86464.13;5093874;28;20202;-57
2024/01/07 02:15:27;;;;;;;54.27;29.87;;;;;;;-144.30;100.00;86501.91;5093961;28;20689;-56
2024/01/07 02:17:54;;;;;;;51.97;29.93;;;;;;;-144.30;100.00;86486.00;5093970;28;20203;-56
2024/01/07 02:20:21;;;;;;;54.40;30.47;;;;;;;-144.30;100.00;86476.06;5093433;28;20202;-56
2024/01/07 02:22:48;;;;;;;51.43;29.07;;;;;;;-144.30;100.00;86517.81;5093555;28;20199;-55
2024/01/07 02:25:16;;;;;;;52.23;31.10;;;;;;;-144.30;100.00;86555.59;5093501;28;20230;-56
2024/01/07 02:27:43;;;;;;;57.57;31.53;;;;;;;-144.30;100.00;86482.03;5093236;28;20206;-54
2024/01/07 02:30:11;;;;;;;55.83;29.03;;;;;;;-144.30;100.00;86440.25;5093334;28;20201;-56
2024/01/07 02:32:38;;;;;;;55.37;29.80;;;;;;;-144.30;100.00;86501.91;5093263;28;20195;-56
2024/01/07 02:35:06;;;;;;;49.40;28.83;;;;;;;-144.30;100.00;86448.22;5093591;28;20191;-56
2024/01/07 02:37:32;;;;;;;51.77;30.80;;;;;;;-144.30;100.00;86458.16;5093356;28;20249;-55
2024/01/07 02:39:59;;;;;;;53.50;29.27;;;;;;;-144.30;100.00;86501.91;5093185;28;20202;-56
2024/01/07 02:42:28;;;;;;;56.63;31.00;;;;;;;-144.30;100.00;86446.22;5093145;28;20213;-55
2024/01/07 02:44:54;;;;;;;55.83;31.00;;;;;;;-144.30;100.00;86434.28;5093249;28;20224;-56
2024/01/07 02:47:21;;;;;;;49.20;28.93;;;;;;;-144.30;100.00;86462.13;5093284;28;20589;-56
2024/01/07 02:49:48;;;;;;;53.10;28.67;;;;;;;-144.30;100.00;86511.84;5092904;28;20202;-56
2024/01/07 02:52:15;;;;;;;47.50;28.33;;;;;;;-144.30;100.00;86462.13;5093003;28;20191;-55
2024/01/07 02:54:42;;;;;;;47.17;27.07;;;;;;;-144.30;100.00;86452.19;5093049;28;20594;-55
2024/01/07 02:57:09;;;;;;;50.83;28.73;;;;;;;-144.30;100.00;86426.34;5093044;28;20199;-55
2024/01/07 02:59:37;;;;;;;42.27;25.53;;;;;;;-144.30;100.00;86486.00;5093065;28;20197;-56
2024/01/07 03:02:04;;;;;;;44.87;26.33;;;;;;;-144.30;100.00;86428.31;5092797;28;20753;-56
2024/01/07 03:04:31;;;;;;;53.53;27.67;;;;;;;-144.30;100.00;86468.09;5092935;28;20713;-56
2024/01/07 03:06:58;;;;;;;42.00;25.00;;;;;;;-144.30;100.00;86422.38;5093030;28;20733;-55
2024/01/07 03:09:25;;;;;;;46.00;26.37;;;;;;;-144.30;100.00;86452.19;5092886;28;20196;-55
2024/01/07 03:11:54;;;;;;;47.83;27.43;;;;;;;-144.30;100.00;86418.38;5092690;28;20294;-56
2024/01/07 03:14:21;;;;;;;56.20;31.40;;;;;;;-144.30;100.00;86392.53;5093037;28;20198;-55
2024/01/07 03:16:50;;;;;;;55.30;30.10;;;;;;;-144.30;100.00;86456.16;5092695;28;20593;-56
2024/01/07 03:19:16;;;;;;;51.43;29.60;;;;;;;-144.30;100.00;86386.56;5092322;28;20198;-56
2024/01/07 03:21:43;;;;;;;48.80;29.43;;;;;;;-144.30;100.00;86448.22;5092362;28;20199;-55
2024/01/07 03:24:11;;;;;;;52.77;29.57;;;;;;;-144.30;100.00;86380.59;5092323;28;20215;-55
2024/01/07 03:26:38;;;;;;;52.03;27.93;;;;;;;-144.30;100.00;86470.09;5092469;28;20329;-56
2024/01/07 03:29:05;;;;;;;52.43;28.70;;;;;;;-144.30;100.00;86416.41;5092591;28;20191;-56
2024/01/07 03:31:32;;;;;;;53.10;28.37;;;;;;;-144.30;100.00;86434.28;5092774;28;20199;-57
2024/01/07 03:34:00;;;;;;;50.27;29.13;;;;;;;-144.30;100.00;86394.53;5092446;28;20191;-56
2024/01/07 03:36:27;;;;;;;56.00;30.30;;;;;;;-144.30;100.00;86394.53;5092596;28;20217;-56
2024/01/07 03:38:55;;;;;;;46.73;27.13;;;;;;;-144.30;100.00;86430.31;5092362;28;20203;-55
2024/01/07 03:41:22;;;;;;;50.90;28.93;;;;;;;-144.30;100.00;86372.66;5092477;28;20192;-56
2024/01/07 03:43:49;;;;;;;52.97;28.43;;;;;;;-144.30;100.00;86386.56;5092168;28;20241;-56
2024/01/07 03:46:17;;;;;;;52.53;28.83;;;;;;;-144.30;100.00;86414.41;5092155;28;20201;-56
2024/01/07 03:48:44;;;;;;;56.43;29.83;;;;;;;-144.30;100.00;86370.66;5092199;28;20190;-54
2024/01/07 03:51:13;;;;;;;54.87;29.80;;;;;;;-144.30;100.00;86406.44;5091978;28;20689;-56
2024/01/07 03:53:40;;;;;;;51.20;30.13;;;;;;;-144.30;100.00;86404.47;5091780;28;20282;-54
2024/01/07 03:56:07;;;;;;;54.90;30.83;;;;;;;-144.30;100.00;86400.50;5091992;28;20202;-55
2024/01/07 03:58:34;;;;;;;53.47;29.70;;;;;;;-144.30;100.00;86394.53;5077255;28;20196;-55
2024/01/07 04:01:01;;;;;;;53.83;30.20;;;;;;;-144.30;100.00;86412.41;5071499;28;20327;-54
2024/01/07 04:03:28;;;;;;;55.00;30.13;;;;;;;-144.30;100.00;86370.66;5071395;28;20196;-55
2024/01/07 04:05:55;;;;;;;52.87;31.00;;;;;;;-144.30;100.00;86426.34;5071173;28;20259;-56
2024/01/07 04:08:23;;;;;;;54.53;30.63;;;;;;;-144.30;100.00;86382.59;5071392;28;20200;-55
2024/01/07 04:10:50;;;;;;;50.20;29.57;;;;;;;-144.30;100.00;86394.53;5071362;28;20192;-55
2024/01/07 04:13:17;;;;;;;50.20;28.77;;;;;;;-144.30;100.00;86384.59;5071579;28;20204;-56
2024/01/07 04:15:44;;;;;;;45.13;27.63;;;;;;;-144.30;100.00;86442.25;5071302;28;20253;-55
2024/01/07 04:18:11;;;;;;;47.73;28.87;;;;;;;-144.30;100.00;86432.31;5071238;28;20286;-55
2024/01/07 04:20:38;;;;;;;45.37;28.40;;;;;;;-144.30;100.00;86394.53;5071169;28;20239;-56
2024/01/07 04:23:05;;;;;;;51.73;31.00;;;;;;;-144.30;100.00;86193.69;5070957;28;20561;-56
2024/01/07 04:25:33;;;;;;;50.17;29.97;;;;;;;-144.30;100.00;86414.41;5071192;28;20227;-55
2024/01/07 04:28:01;;;;;;;52.53;30.33;;;;;;;-144.30;100.00;86448.22;5071062;28;20223;-55
2024/01/07 04:30:27;;;;;;;52.73;30.97;;;;;;;-144.30;100.00;86426.34;5071495;28;20202;-55
2024/01/07 04:32:54;;;;;;;54.20;29.70;;;;;;;-144.30;100.00;86410.44;5070765;28;20200;-55
2024/01/07 04:35:21;;;;;;;49.90;30.03;;;;;;;-144.30;100.00;86446.22;5071235;28;20570;-55
2024/01/07 04:37:48;;;;;;;57.67;30.70;;;;;;;-144.30;100.00;86452.19;5071014;28;20683;-56
2024/01/07 04:40:15;;;;;;;52.33;30.47;;;;;;;-144.30;100.00;86414.41;5070908;28;20196;-55
2024/01/07 04:42:43;;;;;;;55.87;30.63;;;;;;;-144.30;100.00;86422.38;5070818;28;20597;-55
2024/01/07 04:45:10;;;;;;;51.50;29.73;;;;;;;-144.30;100.00;86388.56;5070841;28;20219;-56
2024/01/07 04:47:37;;;;;;;54.93;30.53;;;;;;;-144.30;100.00;86434.28;5070740;28;20222;-55
2024/01/07 04:50:05;;;;;;;64.53;32.67;;;;;;;-144.30;100.00;86692.81;5070803;28;20204;-55
2024/01/07 04:52:32;;;;;;;62.20;31.07;;;;;;;-144.30;100.00;86418.38;5070575;28;20297;-56
2024/01/07 04:54:59;;;;;;;57.57;31.60;;;;;;;-144.30;100.00;86414.41;5070677;28;20192;-55
2024/01/07 04:57:26;;;;;;;66.50;33.17;;;;;;;-144.30;100.00;86406.44;5070526;28;20198;-54
2024/01/07 04:59:54;;;;;;;58.90;33.43;;;;;;;-144.30;100.00;86462.13;5070291;28;20206;-55
2024/01/07 05:02:21;;;;;;;67.43;33.77;;;;;;;-144.30;100.00;86430.31;5070220;28;20236;-56
2024/01/07 05:04:48;;;;;;;58.70;32.23;;;;;;;-144.30;100.00;86414.41;5070308;28;20313;-56
2024/01/07 05:07:15;;;;;;;59.63;32.53;;;;;;;-144.30;100.00;86446.22;5070487;28;20210;-55
2024/01/07 05:09:41;;;;;;;62.17;33.60;;;;;;;-144.30;100.00;86452.19;5070361;28;20200;-55
2024/01/07 05:12:08;;;;;;;61.80;32.17;;;;;;;-144.30;100.00;86446.22;5069529;28;20596;-57
2024/01/07 05:14:36;;;;;;;58.33;31.83;;;;;;;-144.30;100.00;86400.50;5069388;28;20195;-57
2024/01/07 05:17:05;;;;;;;57.10;34.13;;;;;;;-144.30;100.00;86414.41;5069355;28;20188;-56
2024/01/07 05:19:32;;;;;;;59.60;34.00;;;;;;;-144.30;100.00;86422.38;5070093;28;20200;-55
2024/01/07 05:21:59;;;;;;;63.00;34.17;;;;;;;-144.30;100.00;86390.53;5069114;28;20191;-56
2024/01/07 05:24:26;;;;;;;64.10;35.97;;;;;;;-144.30;100.00;86406.44;5069099;28;20195;-56
2024/01/07 05:26:54;;;;;;;69.00;36.90;;;;;;;-144.30;100.00;86432.31;5069172;28;20198;-57
2024/01/07 05:29:21;;;;;;;68.00;36.47;;;;;;;-144.30;100.00;86424.34;5069350;28;20203;-57
2024/01/07 05:31:48;;;;;;;61.57;36.27;;;;;;;-144.30;100.00;86855.88;5068073;28;20196;-58
2024/01/07 05:34:16;;;;;;;55.50;33.73;;;;;;;-144.30;100.00;86410.44;5068855;28;20200;-56
2024/01/07 05:36:43;;;;;;;64.33;38.10;;;;;;;-144.30;100.00;86394.53;5068473;28;20287;-56
2024/01/07 05:39:10;;;;;;;74.50;38.47;;;;;;;-144.30;100.00;86388.56;5069280;28;20261;-56
2024/01/07 05:41:38;;;;;;;78.07;35.57;;;;;;;-144.30;100.00;86426.34;5069064;28;20195;-54
2024/01/07 05:44:07;;;;;;;57.83;32.13;;;;;;;-144.30;100.00;86410.44;5069272;28;20232;-55
2024/01/07 05:46:34;;;;;;;59.23;35.03;;;;;;;-144.30;100.00;86390.53;5068570;28;20691;-55
2024/01/07 05:49:01;;;;;;;70.83;38.70;;;;;;;-144.30;100.00;86406.44;5069110;28;20196;-55
2024/01/07 05:51:29;;;;;;;75.87;39.10;;;;;;;-144.30;100.00;86412.41;5069017;28;20195;-55
2024/01/07 05:53:56;;;;;;;58.77;32.63;;;;;;;-144.30;100.00;86420.38;5068869;28;20221;-55
2024/01/07 05:56:23;;;;;;;50.47;28.67;;;;;;;-144.30;100.00;86422.38;5068797;28;20198;-56
2024/01/07 05:58:50;;;;;;;50.10;29.87;;;;;;;-144.30;100.00;86406.44;5065625;28;20210;-56
2024/01/07 06:01:20;;;;;;;50.53;28.37;;;;;;;-144.30;100.00;86450.19;5068082;28;20233;-55
2024/01/07 06:03:47;;;;;;;49.63;28.77;;;;;;;-144.30;100.00;86390.53;5069435;28;20202;-56
2024/01/07 06:06:14;;;;;;;51.97;28.57;;;;;;;-144.30;100.00;86458.16;5069584;28;20729;-55
2024/01/07 06:08:42;;;;;;;46.00;28.47;;;;;;;-144.30;100.00;86299.06;5069109;28;20196;-55
2024/01/07 06:11:10;;;;;;;51.43;28.93;;;;;;;-144.30;100.00;86434.28;5069549;28;20200;-56
2024/01/07 06:13:37;;;;;;;51.23;29.47;;;;;;;-144.30;100.00;86436.28;5069648;28;20443;-55
2024/01/07 06:16:05;;;;;;;52.70;29.37;;;;;;;-144.30;100.00;86452.19;5069388;28;20187;-56
2024/01/07 06:18:31;;;;;;;56.90;30.03;;;;;;;-144.30;100.00;86436.28;5069566;28;20618;-55
2024/01/07 06:20:58;;;;;;;47.40;28.90;;;;;;;-144.30;100.00;86390.53;5069408;28;20636;-56
2024/01/07 06:23:25;;;;;;;46.87;29.90;;;;;;;-144.30;100.00;86460.16;5069174;28;20782;-56
2024/01/07 06:25:53;;;;;;;49.80;30.20;;;;;;;-144.30;100.00;86462.13;5069206;28;20227;-55
2024/01/07 06:28:20;;;;;;;49.50;29.47;;;;;;;-144.30;100.00;86464.13;5069465;28;20588;-55
2024/01/07 06:30:47;;;;;;;50.63;28.00;;;;;;;-144.30;100.00;86434.28;5069187;28;20223;-56
2024/01/07 06:33:14;;;;;;;47.27;28.87;;;;;;;-144.30;100.00;86398.50;5069277;28;20609;-55
2024/01/07 06:35:41;;;;;;;45.10;28.70;;;;;;;-144.30;100.00;86452.19;5069287;28;20196;-55
2024/01/07 06:38:08;;;;;;;48.83;29.57;;;;;;;-144.30;100.00;86412.41;5069351;28;20196;-55
2024/01/07 06:40:35;;;;;;;43.83;27.83;;;;;;;-144.30;100.00;86432.31;5069163;28;20297;-54
2024/01/07 06:43:04;;;;;;;140.87;54.00;;;;;;;-144.30;100.00;86446.22;5069189;28;20195;-55
2024/01/07 06:45:30;;;;;;;114.47;46.77;;;;;;;-144.30;100.00;86426.34;5069141;28;20216;-54
2024/01/07 06:47:57;;;;;;;69.73;35.77;;;;;;;-144.30;100.00;86402.47;5072359;28;20192;-56
2024/01/07 06:50:25;;;;;;;91.87;51.27;;;;;;;-144.30;100.00;86406.44;5072683;28;20195;-56
2024/01/07 06:52:51;;;;;;;83.00;46.27;;;;;;;-144.30;100.00;86458.16;5067563;28;20204;-56
2024/01/07 06:55:17;;;;;;;84.57;42.80;;;;;;;-144.30;100.00;86436.28;5065471;28;20560;-55
2024/01/07 06:57:44;;;;;;;85.30;42.77;;;;;;;-144.30;100.00;86410.44;5064663;28;20196;-56
2024/01/07 07:00:15;;;;;;;73.00;37.73;;;;;;;-144.30;100.00;86394.53;5059739;28;20235;-55
2024/01/07 07:02:42;;;;;;;88.27;43.27;;;;;;;-144.30;100.00;86376.63;5059806;28;20200;-57
2024/01/07 07:05:09;;;;;;;87.93;44.30;;;;;;;-144.30;100.00;86374.63;5072080;28;20222;-55
2024/01/07 07:07:36;;;;;;;100.13;53.03;;;;;;;-144.30;100.00;86398.50;5061353;28;20282;-55
2024/01/07 07:10:03;;;;;;;100.13;50.83;;;;;;;-144.30;100.00;86368.66;5070670;28;20203;-56
2024/01/07 07:12:30;;;;;;;86.00;46.77;;;;;;;-144.30;100.00;86388.56;5057406;28;20283;-55
2024/01/07 07:14:57;;;;;;;75.90;43.47;;;;;;;-144.30;100.00;86366.69;5052057;28;20196;-55
2024/01/07 07:17:25;;;;;;;72.47;42.23;;;;;;;-144.30;100.00;86416.41;5051834;28;20202;-55
2024/01/07 07:19:52;;;;;;;70.07;41.87;;;;;;;-144.30;100.00;86344.81;5069068;28;20211;-56
2024/01/07 07:22:19;;;;;;;73.47;40.83;;;;;;;-144.30;100.00;86374.63;5071748;28;20210;-56
2024/01/07 07:24:46;;;;;;;67.00;39.43;;;;;;;-144.30;100.00;86394.53;5088019;28;20211;-55
2024/01/07 07:27:13;;;;;;;67.13;38.83;;;;;;;-144.30;100.00;86370.66;5092530;28;20733;-56
2024/01/07 07:29:40;;;;;;;63.27;37.37;;;;;;;-144.30;100.00;86398.50;5079862;28;20582;-56
2024/01/07 07:32:08;;;;;;;61.17;36.00;;;;;;;-144.30;100.00;86382.59;5071197;28;20188;-55
2024/01/07 07:34:36;;;;;;;57.97;35.10;;;;;;;-144.30;100.00;86362.72;5071379;28;20200;-55
2024/01/07 07:37:03;;;;;;;58.97;34.83;;;;;;;-144.30;100.00;86424.34;5071429;28;20682;-55
2024/01/07 07:39:30;;;;;;;60.30;34.43;;;;;;;-144.30;100.00;86388.56;5071191;28;20266;-54
2024/01/07 07:41:57;;;;;;;55.10;33.37;;;;;;;-144.30;100.00;86307.03;5064383;28;20196;-54
2024/01/07 07:44:24;;;;;;;51.33;32.87;;;;;;;-144.30;100.00;86398.50;5070623;28;20192;-55
2024/01/07 07:46:51;;;;;;;54.57;33.10;;;;;;;-144.30;100.00;86432.31;5070342;28;20247;-55
2024/01/07 07:49:18;;;;;;;54.53;33.27;;;;;;;-144.30;100.00;86364.69;5070768;28;20690;-55
2024/01/07 07:51:46;;;;;;;52.67;32.80;;;;;;;-144.30;100.00;86368.66;5070428;28;20200;-55
2024/01/07 07:54:13;;;;;;;60.17;35.23;;;;;;;-144.30;100.00;86392.53;5070572;28;20668;-57
2024/01/07 07:56:40;;;;;;;62.37;36.03;;;;;;;-144.30;100.00;86360.72;5070176;28;20198;-56
2024/01/07 07:59:08;;;;;;;64.53;38.20;;;;;;;-144.30;100.00;86398.50;5069427;28;20202;-55
2024/01/07 08:01:36;;;;;;;60.00;38.00;;;;;;;-144.30;100.00;86293.09;5070489;28;20798;-55
2024/01/07 08:04:05;;;;;;;73.53;44.40;;;;;;;-144.30;100.00;86330.88;5069990;28;20192;-56
2024/01/07 08:06:32;;;;;;;95.00;52.97;;;;;;;-144.30;100.00;86370.66;5070669;28;20223;-56
2024/01/07 08:09:00;;;;;;;88.53;54.70;;;;;;;-144.30;100.00;86346.81;5070341;28;20196;-56
2024/01/07 08:11:29;;;;;;;87.23;52.03;;;;;;;-144.30;100.00;86362.72;5070476;28;20291;-56
2024/01/07 08:13:57;;;;;;;88.40;49.57;;;;;;;-144.30;100.00;86330.88;5070263;28;20269;-56
2024/01/07 08:16:24;;;;;;;83.17;47.83;;;;;;;-144.30;100.00;86309.03;5070777;28;20215;-56
2024/01/07 08:18:51;;;;;;;84.60;50.47;;;;;;;-144.30;100.00;86314.97;5070304;28;20203;-56
2024/01/07 08:21:18;;;;;;;84.63;48.97;;;;;;;-144.30;100.00;86320.94;5067791;28;20200;-56
2024/01/07 08:23:44;;;;;;;86.83;47.50;;;;;;;-144.30;100.00;86305.03;5070977;28;20730;-55
2024/01/07 08:26:13;;;;;;;86.13;45.37;;;;;;;-144.30;100.00;86281.19;5071023;28;20329;-56
2024/01/07 08:28:40;;;;;;;55.90;34.10;;;;;;;-144.30;100.00;86275.22;5070940;28;20671;-56
2024/01/07 08:31:07;;;;;;;66.67;37.20;;;;;;;-144.30;100.00;86267.25;5070778;28;20203;-55
2024/01/07 08:33:34;;;;;;;55.87;34.87;;;;;;;-144.30;100.00;86289.13;5070844;28;20196;-55
2024/01/07 08:36:01;;;;;;;59.50;32.30;;;;;;;-144.30;100.00;86283.16;5070773;28;20199;-56
2024/01/07 08:38:28;;;;;;;46.03;27.67;;;;;;;-144.30;100.00;86271.25;5070705;28;20199;-55
2024/01/07 08:40:55;;;;;;;58.63;34.77;;;;;;;-144.30;100.00;86229.47;5070196;28;20196;-54
2024/01/07 08:43:24;;;;;;;62.47;36.17;;;;;;;-144.30;100.00;86227.50;5070546;28;20196;-56
2024/01/07 08:45:50;;;;;;;66.57;37.33;;;;;;;-144.30;100.00;86251.34;5054171;28;20220;-56
2024/01/07 08:48:17;;;;;;;68.03;35.53;;;;;;;-144.30;100.00;86239.44;5056014;28;20294;-56
2024/01/07 08:50:46;;;;;;;55.57;34.47;;;;;;;-144.30;100.00;86267.25;5063568;28;20214;-57
2024/01/07 08:53:14;;;;;;;60.13;35.80;;;;;;;-144.30;100.00;86219.53;5070542;28;20196;-56
2024/01/07 08:55:41;;;;;;;66.07;41.57;;;;;;;-144.30;100.00;86193.69;5070316;28;20212;-55
2024/01/07 08:58:08;;;;;;;62.47;36.33;;;;;;;-144.30;100.00;86231.47;5070455;28;20302;-55
2024/01/07 09:00:36;;;;;;;56.47;34.03;;;;;;;-144.30;100.00;86207.59;5070065;28;20327;-56
2024/01/07 09:03:04;;;;;;;52.37;32.73;;;;;;;-144.30;100.00;86221.53;5057710;28;20197;-55
2024/01/07 09:05:30;;;;;;;51.33;31.87;;;;;;;-144.30;100.00;86191.69;5053230;28;20212;-55
2024/01/07 09:07:57;;;;;;;44.93;30.93;;;;;;;-144.30;100.00;86257.31;5051778;28;20646;-57
2024/01/07 09:10:24;;;;;;;45.93;29.60;;;;;;;-144.30;100.00;86173.81;5061285;28;20200;-57
2024/01/07 09:12:52;;;;;;;45.90;30.40;;;;;;;-144.30;100.00;86229.47;5069293;28;20192;-57
2024/01/07 09:15:21;;;;;;;42.37;27.33;;;;;;;-144.30;100.00;86237.44;5069053;28;20200;-56
2024/01/07 09:17:49;;;;;;;45.33;28.37;;;;;;;-144.30;100.00;86221.53;5086155;28;20211;-57
2024/01/07 09:20:16;;;;;;;47.83;29.77;;;;;;;-144.30;100.00;86225.50;5090394;28;20199;-56
2024/01/07 09:22:43;;;;;;;40.97;26.57;;;;;;;-144.30;100.00;86155.91;5089976;28;20201;-56
2024/01/07 09:25:11;;;;;;;38.30;26.63;;;;;;;-144.30;100.00;86185.72;5090246;28;20206;-57
2024/01/07 09:27:38;;;;;;;38.33;26.63;;;;;;;-144.30;100.00;86239.44;5090081;28;20218;-57
2024/01/07 09:30:06;;;;;;;42.90;27.00;;;;;;;-144.30;100.00;86191.69;5090191;28;20205;-54
2024/01/07 09:32:33;;;;;;;54.20;31.17;;;;;;;-144.30;100.00;86191.69;5090064;28;20195;-54
2024/01/07 09:35:02;;;;;;;48.30;29.57;;;;;;;-144.30;100.00;86177.78;5090099;28;20191;-57
2024/01/07 09:37:29;;;;;;;43.00;29.07;;;;;;;-144.30;100.00;86151.94;5090279;28;20202;-57
2024/01/07 09:39:56;;;;;;;44.37;27.00;;;;;;;-144.30;100.00;86203.63;5090307;28;20206;-56
2024/01/07 09:42:23;;;;;;;42.40;24.53;;;;;;;-144.30;100.00;86179.78;5054553;28;20204;-57
2024/01/07 09:44:51;;;;;;;38.17;23.27;;;;;;;-144.30;100.00;86155.91;5048900;28;20680;-56
2024/01/07 09:47:20;;;;;;;30.87;19.73;;;;;;;-144.30;100.00;86169.81;5047462;28;20256;-56
2024/01/07 09:49:47;;;;;;;32.53;16.27;;;;;;;-144.30;100.00;86159.88;5048156;28;20205;-57
2024/01/07 09:52:17;;;;;;;30.07;17.57;;;;;;;-144.30;100.00;86191.69;5048169;28;20192;-57
2024/01/07 09:54:50;;;;;;;25.87;15.63;;;;;;;-144.30;100.00;86177.78;5048210;28;20236;-57
2024/01/07 09:57:17;;;;;;;23.47;13.93;;;;;;;-144.30;100.00;86106.19;5048723;28;20296;-56
2024/01/07 09:59:44;;;;;;;21.10;14.50;;;;;;;-144.30;99.96;86112.16;5048811;28;20196;-58
2024/01/07 10:02:11;;;;;;;20.93;13.67;;;;;;;-144.30;99.24;86153.91;5049496;28;20229;-58
2024/01/07 10:04:38;;;;;;;24.07;14.63;;;;;;;-144.30;99.76;86153.91;5049814;28;20197;-58
2024/01/07 10:07:05;;;;;;;24.20;15.37;;;;;;;-144.30;99.76;86159.88;5049639;28;20242;-57
2024/01/07 10:09:35;;;;;;;22.13;14.17;;;;;;;-144.30;99.67;85945.16;5049775;28;20661;-59
2024/01/07 10:12:02;;;;;;;22.03;14.10;;;;;;;-144.30;99.67;86082.34;5049527;28;20228;-56
2024/01/07 10:14:30;;;;;;;23.63;14.67;;;;;;;-144.30;99.36;86116.16;5049500;28;20287;-56
2024/01/07 10:16:58;;;;;;;19.23;14.50;;;;;;;-144.30;99.41;86108.19;5051613;28;20682;-55
2024/01/07 10:19:25;;;;;;;19.60;13.63;;;;;;;-144.30;99.22;86044.56;5069560;28;20200;-55
2024/01/07 10:22:02;;;;;;;20.37;13.10;;;;;;;-144.30;98.73;86078.38;5071284;28;20199;-53
2024/01/07 10:24:38;;;;;;;21.37;13.40;;;;;;;-144.30;98.48;86002.81;5073410;28;20195;-55
2024/01/07 10:27:05;;;;;;;19.27;13.57;;;;;;;-144.30;98.38;86054.50;5073187;28;20223;-55
2024/01/07 10:29:33;;;;;;;18.27;11.93;;;;;;;-144.30;98.36;86175.78;5073618;28;20670;-55
2024/01/07 10:32:02;;;;;;;18.13;10.40;;;;;;;-144.30;97.68;86044.56;5073105;28;20194;-54
2024/01/07 10:34:31;;;;;;;11.73;7.40;;;;;;;-144.30;96.41;86022.69;5073461;28;20672;-54
2024/01/07 10:37:00;;;;;;;9.43;6.03;;;;;;;-144.30;95.05;85976.97;5073266;28;20192;-54
2024/01/07 10:39:27;;;;;;;10.83;7.33;;;;;;;-144.30;95.32;86022.69;5073235;28;20200;-54
2024/01/07 10:41:58;;;;;;;13.63;9.83;;;;;;;-144.30;95.37;86020.69;5073299;28;20231;-55
2024/01/07 10:44:26;;;;;;;23.27;13.90;;;;;;;-144.30;94.51;86038.59;5073000;28;20192;-56
2024/01/07 10:46:56;;;;;;;23.33;14.30;;;;;;;-144.30;94.65;85982.94;5072752;28;20219;-54
2024/01/07 10:49:24;;;;;;;23.40;14.73;;;;;;;-144.30;95.24;85959.06;5073016;28;20196;-55
2024/01/07 10:52:08;;;;;;;22.00;15.07;;;;;;;-144.30;95.23;85998.84;5073856;28;20207;-55
2024/01/07 10:54:36;;;;;;;19.37;13.43;;;;;;;-144.30;94.87;86002.81;5075033;28;20196;-58